createdAt,value
2017-06-21T00:00:00.298Z,66.00
2017-06-21T00:02:29.616Z,66.20
2017-06-21T00:04:57.434Z,66.50
2017-06-21T00:07:27.192Z,67.20
2017-06-21T00:09:57.036Z,67.30
2017-06-21T00:12:26.658Z,67.00
2017-06-21T00:14:59.439Z,67.00
2017-06-21T00:17:32.043Z,67.10
2017-06-21T00:19:59.974Z,67.10
2017-06-21T00:22:29.893Z,67.30
2017-06-21T00:24:59.765Z,67.40
2017-06-21T00:27:29.383Z,67.50
2017-06-21T00:30:01.822Z,67.40
2017-06-21T00:32:34.700Z,67.40
2017-06-21T00:35:04.505Z,67.60
2017-06-21T00:37:34.344Z,67.80
2017-06-21T00:40:06.821Z,67.90
2017-06-21T00:42:41.493Z,67.90
2017-06-21T00:45:14.104Z,68.10
2017-06-21T00:47:44.285Z,68.50
2017-06-21T00:50:13.925Z,68.70
2017-06-21T00:52:46.944Z,68.80
2017-06-21T00:55:17.184Z,68.90
2017-06-21T00:57:43.413Z,69.00
2017-06-21T01:03:08.210Z,69.90
2017-06-21T01:05:34.535Z,70.10
2017-06-21T01:08:04.165Z,70.20
2017-06-21T01:10:34.058Z,70.70
2017-06-21T01:13:06.423Z,70.80
2017-06-21T01:15:47.635Z,70.80
2017-06-21T01:18:20.246Z,71.00
2017-06-21T01:20:46.477Z,71.20
2017-06-21T01:23:12.673Z,71.60
2017-06-21T01:25:38.897Z,72.20
2017-06-21T01:28:06.694Z,72.30
2017-06-21T01:30:36.309Z,72.30
2017-06-21T01:33:08.795Z,72.40
2017-06-21T01:35:41.379Z,72.40
2017-06-21T01:38:08.963Z,72.20
2017-06-21T01:40:41.527Z,72.50
2017-06-21T01:46:08.946Z,72.30
2017-06-21T01:48:41.234Z,72.30
2017-06-21T01:51:07.426Z,72.30
2017-06-21T01:53:33.676Z,72.30
2017-06-21T01:55:59.950Z,72.40
2017-06-21T01:58:26.166Z,72.30
2017-06-21T02:00:52.358Z,72.00
2017-06-21T02:03:18.558Z,72.30
2017-06-21T02:05:44.765Z,72.40
2017-06-21T02:08:17.181Z,72.10
2017-06-21T02:10:49.682Z,72.40
2017-06-21T02:13:21.861Z,72.50
2017-06-21T02:15:48.073Z,72.50
2017-06-21T02:18:17.857Z,72.60
2017-06-21T02:20:44.077Z,72.80
2017-06-21T02:23:10.295Z,72.90
2017-06-21T02:25:36.511Z,73.20
2017-06-21T02:28:02.719Z,73.30
2017-06-21T02:30:34.987Z,73.40
2017-06-21T02:33:05.019Z,73.50
2017-06-21T02:35:31.214Z,73.70
2017-06-21T02:38:00.982Z,73.80
2017-06-21T02:40:27.191Z,74.10
2017-06-21T02:42:53.423Z,74.20
2017-06-21T02:45:19.674Z,74.20
2017-06-21T02:47:51.816Z,75.00
2017-06-21T02:50:21.710Z,74.20
2017-06-21T02:52:54.202Z,74.30
2017-06-21T02:55:20.408Z,74.40
2017-06-21T03:00:43.063Z,75.20
2017-06-21T03:03:09.273Z,74.80
2017-06-21T03:05:38.973Z,74.90
2017-06-21T03:08:11.227Z,75.00
2017-06-21T03:10:37.469Z,75.10
2017-06-21T03:13:03.694Z,75.10
2017-06-21T03:15:30.893Z,75.40
2017-06-21T03:17:57.121Z,75.60
2017-06-21T03:20:23.344Z,75.70
2017-06-21T03:22:49.695Z,75.70
2017-06-21T03:25:15.907Z,75.30
2017-06-21T03:27:42.133Z,75.60
2017-06-21T03:30:12.247Z,74.90
2017-06-21T03:35:37.747Z,75.20
2017-06-21T03:38:03.951Z,75.10
2017-06-21T03:40:30.190Z,75.20
2017-06-21T03:42:56.470Z,74.70
2017-06-21T03:45:26.586Z,74.70
2017-06-21T03:48:06.642Z,74.80
2017-06-21T03:50:36.638Z,74.60
2017-06-21T03:53:06.364Z,74.60
2017-06-21T03:55:36.278Z,74.70
2017-06-21T03:58:09.980Z,74.80
2017-06-21T04:00:43.426Z,73.30
2017-06-21T04:03:12.888Z,71.20
2017-06-21T04:05:49.047Z,69.70
2017-06-21T04:25:57.837Z,56.40
2017-06-21T04:28:44.001Z,55.00
2017-06-21T04:31:10.554Z,52.90
2017-06-21T04:45:22.746Z,48.50
2017-06-21T04:47:49.182Z,47.60
2017-06-21T04:50:15.435Z,46.80
2017-06-21T04:52:43.815Z,45.90
2017-06-21T04:55:10.386Z,45.00
2017-06-21T05:06:24.405Z,40.30
2017-06-21T05:40:33.378Z,35.40
2017-06-21T06:14:43.983Z,26.80
2017-06-21T06:49:07.469Z,22.30
2017-06-21T06:51:33.739Z,22.10
2017-06-21T06:54:00.951Z,21.80
2017-06-21T06:56:27.429Z,21.80
2017-06-21T06:59:00.413Z,21.80
2017-06-21T07:01:26.721Z,21.60
2017-06-21T07:04:02.881Z,21.90
2017-06-21T07:06:38.463Z,21.40
2017-06-21T07:09:14.985Z,21.40
2017-06-21T07:11:41.275Z,21.30
2017-06-21T07:14:14.627Z,21.40
2017-06-21T07:16:40.876Z,21.00
2017-06-21T07:19:07.094Z,20.60
2017-06-21T07:21:33.346Z,20.40
2017-06-21T07:23:59.720Z,20.80
2017-06-21T07:26:25.990Z,20.70
2017-06-21T07:28:52.208Z,20.50
2017-06-21T07:31:18.432Z,19.90
2017-06-21T07:33:44.636Z,20.10
2017-06-21T07:36:10.848Z,20.30
2017-06-21T07:38:37.065Z,20.30
2017-06-21T07:41:03.380Z,20.00
2017-06-21T07:43:35.659Z,20.00
2017-06-21T07:46:01.874Z,19.80
2017-06-21T07:48:28.079Z,19.50
2017-06-21T07:50:54.325Z,18.90
2017-06-21T07:53:20.538Z,18.70
2017-06-21T07:55:46.855Z,18.50
2017-06-21T07:58:13.093Z,18.90
2017-06-21T08:00:39.318Z,18.90
2017-06-21T08:03:05.533Z,18.50
2017-06-21T08:05:31.793Z,18.30
2017-06-21T08:07:58.037Z,18.20
2017-06-21T08:10:52.086Z,18.20
2017-06-21T09:42:37.231Z,33.60
2017-06-21T10:42:48.827Z,35.30
2017-06-21T11:14:22.417Z,36.20
2017-06-21T12:26:10.187Z,37.40
2017-06-21T12:51:56.626Z,36.40
2017-06-21T14:32:20.199Z,37.50
2017-06-21T17:21:52.131Z,41.00
2017-06-21T18:04:38.043Z,42.90
2017-06-21T18:07:04.221Z,43.40
2017-06-21T18:09:30.418Z,43.70
2017-06-21T18:11:56.634Z,43.90
2017-06-21T18:14:22.874Z,43.80
2017-06-21T18:16:49.088Z,43.70
2017-06-21T18:19:15.326Z,44.20
2017-06-21T18:21:41.548Z,44.00
2017-06-21T18:24:07.750Z,44.40
2017-06-21T18:26:33.988Z,45.00
2017-06-21T18:29:00.217Z,44.90
2017-06-21T18:31:26.408Z,45.00
2017-06-21T18:33:52.973Z,45.60
2017-06-21T18:36:19.201Z,46.30
2017-06-21T18:38:45.417Z,46.30
2017-06-21T18:41:11.629Z,46.20
2017-06-21T18:43:37.863Z,46.00
2017-06-21T18:46:04.231Z,45.60
2017-06-21T18:48:30.467Z,43.60
2017-06-21T18:50:56.726Z,43.30
2017-06-21T18:53:24.101Z,42.80
2017-06-21T18:55:50.745Z,42.40
2017-06-21T18:58:16.963Z,42.10
2017-06-21T19:00:43.138Z,42.60
2017-06-21T19:03:10.393Z,43.30
2017-06-21T19:05:36.636Z,43.50
2017-06-21T19:08:02.962Z,43.50
2017-06-21T19:10:29.193Z,44.00
2017-06-21T19:12:55.440Z,44.50
2017-06-21T19:15:21.710Z,44.70
2017-06-21T19:17:48.046Z,45.30
2017-06-21T19:20:14.248Z,46.00
2017-06-21T19:22:40.471Z,46.50
2017-06-21T19:25:07.628Z,47.20
2017-06-21T19:27:33.885Z,47.50
2017-06-21T19:30:00.090Z,47.80
2017-06-21T19:32:26.301Z,48.10
2017-06-21T19:34:52.526Z,48.80
2017-06-21T19:37:18.832Z,48.30
2017-06-21T19:39:45.027Z,49.00
2017-06-21T19:42:11.404Z,48.30
2017-06-21T19:44:45.679Z,47.60
2017-06-21T19:47:19.413Z,48.10
2017-06-21T19:49:53.223Z,49.60
2017-06-21T19:52:26.899Z,49.80
2017-06-21T19:55:00.843Z,50.20
2017-06-21T19:57:34.627Z,49.90
2017-06-21T20:00:07.392Z,49.80
2017-06-21T20:02:37.276Z,49.50
2017-06-21T20:05:10.855Z,49.70
2017-06-21T20:07:44.879Z,49.60
2017-06-21T20:10:17.581Z,49.90
2017-06-21T20:12:48.379Z,49.90
2017-06-21T20:15:22.108Z,49.90
2017-06-21T20:23:42.360Z,50.80
2017-06-21T20:26:16.140Z,51.90
2017-06-21T20:28:50.092Z,52.00
2017-06-21T20:31:23.959Z,51.80
2017-06-21T20:33:57.757Z,51.40
2017-06-21T20:36:31.334Z,51.80
2017-06-21T20:39:02.294Z,51.30
2017-06-21T20:41:35.946Z,50.00
2017-06-21T20:44:10.365Z,49.40
2017-06-21T20:46:44.764Z,49.60
2017-06-21T20:49:18.901Z,49.80
2017-06-21T20:51:53.434Z,50.20
2017-06-21T20:54:24.502Z,50.90
2017-06-21T20:56:57.998Z,52.20
2017-06-21T20:59:28.858Z,52.90
2017-06-21T21:01:59.813Z,53.50
2017-06-21T21:04:30.662Z,53.20
2017-06-21T21:07:03.162Z,52.20
2017-06-21T21:09:34.139Z,53.30
2017-06-21T21:12:05.677Z,53.40
2017-06-21T21:14:36.850Z,52.80
2017-06-21T21:17:07.263Z,53.10
2017-06-21T21:19:38.318Z,53.20
2017-06-21T21:22:06.482Z,53.00
2017-06-21T21:24:37.440Z,53.50
2017-06-21T21:27:07.243Z,54.50
2017-06-21T21:29:42.875Z,54.40
2017-06-21T21:32:11.189Z,53.60
2017-06-21T21:34:44.109Z,53.70
2017-06-21T21:37:13.816Z,54.60
2017-06-21T21:39:41.583Z,54.00
2017-06-21T21:42:09.275Z,53.60
2017-06-21T21:44:37.231Z,53.70
2017-06-21T21:47:06.843Z,54.10
2017-06-21T21:49:36.706Z,54.00
2017-06-21T21:52:06.661Z,53.60
2017-06-21T21:54:39.210Z,54.20
2017-06-21T21:57:08.973Z,54.30
2017-06-21T21:59:36.560Z,55.60
2017-06-21T22:02:06.571Z,54.80
2017-06-21T22:04:36.784Z,55.60
2017-06-21T22:07:10.401Z,55.30
2017-06-21T22:09:38.700Z,55.00
2017-06-21T22:12:08.498Z,54.70
2017-06-21T22:14:38.404Z,55.80
2017-06-21T22:17:11.040Z,55.10
2017-06-21T22:19:41.387Z,55.60
2017-06-21T22:22:11.714Z,56.30
2017-06-21T22:24:45.375Z,56.60
2017-06-21T22:27:15.239Z,56.70
2017-06-21T22:29:44.983Z,56.70
2017-06-21T22:32:16.059Z,57.10
2017-06-21T22:34:45.807Z,56.70
2017-06-21T22:37:16.535Z,56.30
2017-06-21T22:39:46.531Z,56.20
2017-06-21T22:42:20.075Z,56.80
2017-06-21T22:44:53.811Z,57.60
2017-06-21T22:47:26.443Z,57.50
2017-06-21T22:49:56.546Z,57.20
2017-06-21T22:52:26.017Z,57.30
2017-06-21T22:54:55.714Z,57.20
2017-06-21T22:57:25.554Z,57.60
2017-06-21T22:59:55.494Z,58.20
2017-06-21T23:02:25.958Z,58.40
2017-06-21T23:04:56.468Z,58.50
2017-06-21T23:07:26.166Z,58.70
2017-06-21T23:09:55.869Z,58.60
2017-06-21T23:12:26.460Z,59.50
2017-06-21T23:14:54.349Z,59.70
2017-06-21T23:17:24.609Z,59.50
2017-06-21T23:19:52.649Z,59.60
2017-06-21T23:22:22.559Z,59.80
2017-06-21T23:24:52.355Z,59.70
2017-06-21T23:27:22.177Z,59.40
2017-06-21T23:29:52.027Z,60.90
2017-06-21T23:32:22.955Z,61.20
2017-06-21T23:34:52.954Z,60.60
2017-06-21T23:37:35.543Z,61.50
2017-06-21T23:40:05.854Z,60.80
2017-06-21T23:42:35.671Z,61.40
2017-06-21T23:45:08.383Z,62.00
2017-06-21T23:47:38.610Z,61.60
2017-06-21T23:50:08.276Z,62.10
2017-06-21T23:52:38.166Z,62.50
2017-06-21T23:55:08.018Z,62.40
2017-06-21T23:57:38.943Z,63.20
